createdAt,value
2022-10-25T00:00:44.477Z,3.85
2022-10-25T00:03:04.225Z,3.97
2022-10-25T00:05:21.457Z,4.00
2022-10-25T00:07:40.004Z,3.55
2022-10-25T00:09:56.924Z,4.20
2022-10-25T00:12:13.969Z,3.30
2022-10-25T00:14:32.210Z,3.60
2022-10-25T00:16:49.797Z,3.72
2022-10-25T00:19:06.882Z,4.13
2022-10-25T00:21:23.965Z,3.28
2022-10-25T00:23:41.221Z,4.10
2022-10-25T00:25:58.553Z,3.60
2022-10-25T00:28:15.594Z,3.45
2022-10-25T00:30:32.927Z,2.80
2022-10-25T00:32:49.969Z,3.80
2022-10-25T00:35:07.239Z,3.28
2022-10-25T00:37:24.513Z,3.13
2022-10-25T00:39:41.747Z,3.70
2022-10-25T00:41:58.749Z,3.28
2022-10-25T00:44:16.017Z,3.53
2022-10-25T00:46:32.977Z,3.65
2022-10-25T00:48:50.218Z,4.03
2022-10-25T00:51:07.114Z,3.78
2022-10-25T00:53:24.438Z,3.53
2022-10-25T00:55:41.681Z,2.88
2022-10-25T00:57:59.579Z,3.20
2022-10-25T01:00:16.538Z,3.40
2022-10-25T01:02:34.420Z,2.95
2022-10-25T01:04:51.581Z,3.55
2022-10-25T01:07:09.784Z,3.60
2022-10-25T01:09:29.717Z,3.60
2022-10-25T01:11:47.008Z,3.50
2022-10-25T01:14:04.330Z,3.78
2022-10-25T01:16:21.681Z,3.85
2022-10-25T01:18:38.984Z,4.20
2022-10-25T01:20:55.982Z,4.55
2022-10-25T01:23:13.279Z,3.95
2022-10-25T01:25:30.208Z,4.45
2022-10-25T01:27:47.286Z,4.20
2022-10-25T01:30:06.526Z,3.72
2022-10-25T01:32:23.803Z,3.30
2022-10-25T01:34:41.113Z,4.00
2022-10-25T01:36:58.195Z,3.25
2022-10-25T01:39:15.461Z,3.90
2022-10-25T01:41:32.543Z,3.67
2022-10-25T01:43:49.795Z,3.63
2022-10-25T01:46:06.786Z,3.85
2022-10-25T01:48:24.053Z,4.00
2022-10-25T01:50:41.161Z,3.50
2022-10-25T01:52:58.095Z,3.83
2022-10-25T01:55:15.201Z,3.60
2022-10-25T01:57:32.165Z,3.28
2022-10-25T01:59:49.416Z,3.60
2022-10-25T02:02:06.569Z,3.40
2022-10-25T02:04:23.574Z,2.92
2022-10-25T02:06:41.178Z,3.60
2022-10-25T02:08:59.165Z,3.17
2022-10-25T02:11:16.450Z,3.25
2022-10-25T02:13:33.744Z,3.47
2022-10-25T02:15:50.996Z,3.42
2022-10-25T02:18:08.021Z,3.15
2022-10-25T02:20:25.360Z,3.40
2022-10-25T02:22:42.386Z,3.75
2022-10-25T02:25:00.565Z,3.75
2022-10-25T02:27:17.854Z,3.20
2022-10-25T02:29:34.753Z,3.33
2022-10-25T02:31:58.991Z,3.75
2022-10-25T02:36:33.251Z,4.30
2022-10-25T02:38:50.321Z,4.30
2022-10-25T02:41:07.580Z,3.58
2022-10-25T02:43:24.688Z,4.00
2022-10-25T02:45:42.440Z,3.70
2022-10-25T02:47:59.643Z,3.47
2022-10-25T02:50:16.765Z,3.72
2022-10-25T02:52:33.791Z,3.38
2022-10-25T02:54:51.044Z,3.45
2022-10-25T02:57:08.116Z,3.03
2022-10-25T02:59:25.425Z,3.70
2022-10-25T03:01:42.572Z,3.75
2022-10-25T03:03:59.882Z,3.10
2022-10-25T03:06:17.186Z,3.67
2022-10-25T03:08:34.531Z,4.30
2022-10-25T03:10:51.613Z,3.33
2022-10-25T03:13:08.686Z,3.28
2022-10-25T03:15:26.734Z,3.88
2022-10-25T03:17:44.171Z,3.55
2022-10-25T03:20:01.602Z,3.03
2022-10-25T03:22:18.621Z,3.28
2022-10-25T03:24:35.852Z,3.47
2022-10-25T03:26:54.112Z,3.50
2022-10-25T03:29:11.434Z,3.40
2022-10-25T03:31:30.327Z,3.50
2022-10-25T03:33:47.634Z,3.05
2022-10-25T03:36:06.852Z,3.50
2022-10-25T03:38:23.777Z,3.80
2022-10-25T03:40:40.808Z,3.40
2022-10-25T03:42:57.847Z,3.10
2022-10-25T03:45:14.777Z,3.45
2022-10-25T03:47:31.740Z,3.33
2022-10-25T03:49:48.808Z,2.75
2022-10-25T03:52:07.847Z,3.47
2022-10-25T03:54:28.309Z,3.38
2022-10-25T03:56:47.577Z,3.72
2022-10-25T03:59:04.642Z,2.63
2022-10-25T04:01:21.990Z,3.65
2022-10-25T04:03:39.134Z,3.20
2022-10-25T04:05:56.365Z,2.70
2022-10-25T04:08:14.314Z,3.15
2022-10-25T04:10:31.338Z,3.08
2022-10-25T04:12:49.256Z,2.80
2022-10-25T04:15:06.616Z,2.85
2022-10-25T04:17:23.672Z,3.25
2022-10-25T04:19:40.577Z,3.25
2022-10-25T04:21:57.707Z,2.58
2022-10-25T04:24:15.818Z,3.03
2022-10-25T04:26:34.163Z,2.50
2022-10-25T04:28:51.510Z,2.78
2022-10-25T04:31:09.842Z,3.20
2022-10-25T04:33:26.896Z,2.88
2022-10-25T04:35:44.317Z,2.60
2022-10-25T04:38:01.344Z,2.95
2022-10-25T04:40:22.517Z,2.50
2022-10-25T04:42:42.113Z,3.00
2022-10-25T04:44:59.457Z,3.05
2022-10-25T04:47:16.702Z,2.30
2022-10-25T04:49:34.230Z,3.30
2022-10-25T04:54:08.537Z,2.83
2022-10-25T04:56:25.830Z,2.80
2022-10-25T04:58:45.195Z,2.92
2022-10-25T05:01:02.563Z,3.10
2022-10-25T05:03:19.896Z,3.10
2022-10-25T05:05:36.999Z,2.72
2022-10-25T05:07:54.425Z,2.90
2022-10-25T05:10:11.447Z,2.95
2022-10-25T05:12:28.530Z,2.70
2022-10-25T05:14:46.016Z,2.78
2022-10-25T05:17:03.378Z,2.90
2022-10-25T05:19:20.332Z,3.13
2022-10-25T05:21:38.395Z,3.00
2022-10-25T05:24:00.567Z,2.80
2022-10-25T05:26:19.621Z,2.75
2022-10-25T05:28:36.939Z,2.90
2022-10-25T05:30:54.381Z,2.58
2022-10-25T05:33:11.726Z,2.60
2022-10-25T05:35:29.582Z,2.88
2022-10-25T05:37:46.857Z,2.67
2022-10-25T05:40:06.092Z,2.70
2022-10-25T05:42:23.317Z,2.85
2022-10-25T05:44:41.656Z,3.00
2022-10-25T05:46:58.647Z,2.80
2022-10-25T05:49:15.935Z,4.32
2022-10-25T05:51:35.068Z,2.85
2022-10-25T05:53:53.060Z,3.80
2022-10-25T05:56:11.269Z,2.78
2022-10-25T05:58:29.558Z,3.47
2022-10-25T06:00:46.611Z,2.72
2022-10-25T06:03:05.256Z,2.67
2022-10-25T06:05:22.499Z,2.83
2022-10-25T06:07:40.519Z,3.05
2022-10-25T06:10:00.170Z,2.90
2022-10-25T06:12:17.543Z,2.65
2022-10-25T06:14:35.897Z,2.72
2022-10-25T06:16:52.894Z,2.35
2022-10-25T06:19:09.943Z,2.30
2022-10-25T06:21:27.182Z,2.53
2022-10-25T06:23:46.816Z,2.20
2022-10-25T06:26:04.073Z,2.65
2022-10-25T06:28:22.042Z,2.60
2022-10-25T06:30:39.156Z,2.42
2022-10-25T06:32:56.148Z,2.13
2022-10-25T06:35:13.459Z,2.50
2022-10-25T06:37:30.836Z,3.05
2022-10-25T06:39:48.014Z,2.53
2022-10-25T06:42:05.230Z,2.13
2022-10-25T06:44:26.577Z,2.40
2022-10-25T06:47:15.238Z,2.42
2022-10-25T06:49:20.507Z,2.60
2022-10-25T06:51:37.738Z,2.90
2022-10-25T06:53:55.121Z,2.50
2022-10-25T06:56:20.625Z,2.70
2022-10-25T06:58:38.652Z,3.25
2022-10-25T07:00:55.860Z,2.90
2022-10-25T07:03:12.905Z,2.80
2022-10-25T07:05:30.949Z,2.92
2022-10-25T07:07:48.365Z,2.60
2022-10-25T07:10:05.629Z,2.88
2022-10-25T07:12:22.660Z,3.00
2022-10-25T07:14:39.685Z,3.13
2022-10-25T07:17:00.616Z,2.85
2022-10-25T07:19:17.876Z,2.70
2022-10-25T07:21:34.900Z,3.03
2022-10-25T07:23:54.560Z,4.57
2022-10-25T07:26:11.652Z,6.13
2022-10-25T07:28:28.875Z,9.52
2022-10-25T07:30:46.173Z,10.25
2022-10-25T07:33:03.207Z,8.20
2022-10-25T07:35:20.196Z,4.70
2022-10-25T07:37:37.439Z,5.80
2022-10-25T07:39:55.162Z,4.43
2022-10-25T07:42:12.147Z,4.30
2022-10-25T07:44:29.194Z,4.47
2022-10-25T07:46:46.552Z,4.00
2022-10-25T07:49:03.577Z,4.00
2022-10-25T07:51:20.917Z,3.95
2022-10-25T07:53:37.892Z,4.00
2022-10-25T07:55:54.947Z,3.50
2022-10-25T07:58:11.958Z,3.00
2022-10-25T08:00:28.950Z,3.05
2022-10-25T08:02:46.229Z,2.60
2022-10-25T08:05:04.537Z,2.70
2022-10-25T08:07:21.806Z,2.65
2022-10-25T08:09:39.029Z,2.78
2022-10-25T08:11:57.409Z,1.85
2022-10-25T08:14:14.633Z,2.20
2022-10-25T08:16:31.983Z,1.98
2022-10-25T08:18:48.891Z,2.00
2022-10-25T08:21:06.128Z,1.90
2022-10-25T08:23:24.069Z,2.50
2022-10-25T08:25:42.443Z,2.10
2022-10-25T08:27:59.504Z,1.90
2022-10-25T08:30:16.566Z,1.75
2022-10-25T08:32:33.863Z,1.70
2022-10-25T08:34:52.309Z,1.65
2022-10-25T08:37:10.915Z,1.73
2022-10-25T08:39:27.939Z,1.40
2022-10-25T08:41:45.209Z,1.52
2022-10-25T08:44:02.221Z,1.40
2022-10-25T08:46:19.587Z,1.83
2022-10-25T08:48:38.487Z,1.30
2022-10-25T08:50:55.510Z,1.40
2022-10-25T08:53:13.787Z,1.40
2022-10-25T08:55:30.788Z,1.40
2022-10-25T08:57:48.638Z,1.30
2022-10-25T09:00:05.814Z,1.65
2022-10-25T09:02:22.965Z,1.27
2022-10-25T09:04:40.128Z,1.85
2022-10-25T09:06:58.184Z,1.40
2022-10-25T09:09:15.256Z,1.58
2022-10-25T09:11:32.548Z,1.50
2022-10-25T09:13:49.468Z,2.33
2022-10-25T09:16:06.718Z,2.58
2022-10-25T09:18:23.976Z,2.28
2022-10-25T09:20:41.238Z,1.45
2022-10-25T09:22:58.534Z,1.45
2022-10-25T09:25:15.373Z,1.52
2022-10-25T09:27:32.621Z,1.13
2022-10-25T09:29:50.091Z,1.17
2022-10-25T09:32:07.134Z,1.67
2022-10-25T09:34:24.076Z,1.33
2022-10-25T09:36:40.938Z,1.35
2022-10-25T09:38:58.267Z,1.00
2022-10-25T09:41:18.067Z,1.20
2022-10-25T09:43:35.155Z,1.17
2022-10-25T09:45:54.459Z,0.90
2022-10-25T09:48:11.434Z,1.00
2022-10-25T09:50:29.295Z,1.30
2022-10-25T09:52:46.383Z,1.10
2022-10-25T09:55:04.899Z,1.40
2022-10-25T09:57:21.911Z,1.52
2022-10-25T09:59:42.576Z,1.20
2022-10-25T10:01:59.989Z,1.30
2022-10-25T10:04:17.384Z,1.38
2022-10-25T10:06:34.641Z,1.63
2022-10-25T10:08:52.646Z,1.30
2022-10-25T10:11:09.946Z,1.30
2022-10-25T10:13:26.942Z,1.30
2022-10-25T10:15:44.280Z,1.30
2022-10-25T10:18:01.718Z,1.38
2022-10-25T10:20:18.993Z,1.40
2022-10-25T10:22:36.161Z,1.52
2022-10-25T10:24:54.146Z,1.25
2022-10-25T10:27:11.433Z,1.52
2022-10-25T10:29:28.735Z,1.50
2022-10-25T10:31:45.661Z,1.80
2022-10-25T10:34:03.586Z,1.40
2022-10-25T10:36:21.821Z,1.33
2022-10-25T10:38:39.832Z,1.67
2022-10-25T10:40:58.166Z,2.35
2022-10-25T10:43:15.572Z,2.10
2022-10-25T10:45:32.884Z,1.90
2022-10-25T10:47:49.914Z,1.80
2022-10-25T10:50:07.228Z,2.50
2022-10-25T10:54:46.878Z,2.63
2022-10-25T10:57:03.880Z,2.65
2022-10-25T10:59:21.146Z,3.08
2022-10-25T11:01:38.130Z,3.17
2022-10-25T11:03:59.912Z,2.75
2022-10-25T11:06:17.649Z,2.40
2022-10-25T11:08:34.959Z,2.75
2022-10-25T11:10:52.002Z,2.88
2022-10-25T11:13:10.020Z,2.47
2022-10-25T11:15:27.049Z,2.90
2022-10-25T11:17:44.254Z,2.40
2022-10-25T11:20:01.624Z,2.17
2022-10-25T11:22:18.878Z,2.35
2022-10-25T11:24:35.893Z,2.63
2022-10-25T11:26:53.225Z,2.30
2022-10-25T11:29:10.484Z,2.22
2022-10-25T11:31:27.513Z,1.90
2022-10-25T11:33:44.438Z,1.50
2022-10-25T11:36:02.507Z,1.38
2022-10-25T11:38:19.745Z,1.50
2022-10-25T11:40:36.810Z,1.58
2022-10-25T11:42:54.042Z,1.60
2022-10-25T11:45:14.342Z,1.73
2022-10-25T11:47:31.603Z,1.60
2022-10-25T11:49:53.499Z,1.50
2022-10-25T11:54:31.003Z,1.50
2022-10-25T11:56:47.933Z,1.52
2022-10-25T11:59:05.150Z,1.50
2022-10-25T12:01:22.194Z,1.80
2022-10-25T12:03:39.585Z,1.30
2022-10-25T12:05:56.612Z,1.33
2022-10-25T12:08:16.759Z,1.48
2022-10-25T12:10:34.102Z,1.42
2022-10-25T12:12:52.094Z,1.50
2022-10-25T12:15:09.109Z,1.50
2022-10-25T12:17:27.069Z,1.33
2022-10-25T12:19:44.397Z,1.83
2022-10-25T12:22:02.767Z,8.93
2022-10-25T12:24:20.025Z,4.25
2022-10-25T12:26:39.413Z,3.45
2022-10-25T12:28:56.442Z,4.80
2022-10-25T12:31:13.697Z,2.10
2022-10-25T12:33:30.942Z,1.30
2022-10-25T12:35:48.189Z,1.52
2022-10-25T12:38:10.088Z,0.80
2022-10-25T12:40:27.361Z,1.15
2022-10-25T12:42:44.522Z,1.52
2022-10-25T12:45:02.427Z,1.63
2022-10-25T12:47:20.850Z,1.33
2022-10-25T12:49:39.562Z,1.27
2022-10-25T12:51:57.517Z,1.45
2022-10-25T12:54:14.796Z,1.10
2022-10-25T12:56:33.462Z,1.58
2022-10-25T12:58:50.479Z,1.30
2022-10-25T13:01:07.403Z,1.35
2022-10-25T13:03:24.554Z,1.30
2022-10-25T13:05:41.830Z,1.10
2022-10-25T13:07:58.829Z,1.30
2022-10-25T13:10:16.168Z,1.10
2022-10-25T13:12:33.499Z,1.00
2022-10-25T13:14:51.480Z,1.13
2022-10-25T13:17:08.820Z,1.25
2022-10-25T13:19:42.796Z,1.05
2022-10-25T13:22:03.614Z,1.50
2022-10-25T13:24:21.893Z,1.10
2022-10-25T13:26:38.968Z,1.25
2022-10-25T13:28:56.246Z,1.13
2022-10-25T13:31:13.211Z,1.02
2022-10-25T13:33:30.212Z,0.90
2022-10-25T13:35:48.219Z,1.02
2022-10-25T13:38:05.525Z,0.80
2022-10-25T13:40:23.417Z,1.15
2022-10-25T13:42:41.303Z,1.13
2022-10-25T13:44:58.328Z,1.20
2022-10-25T13:47:16.634Z,1.33
2022-10-25T13:49:33.634Z,0.93
2022-10-25T13:51:50.968Z,1.10
2022-10-25T13:54:11.681Z,1.23
2022-10-25T13:56:30.234Z,1.35
2022-10-25T13:58:49.384Z,1.38
2022-10-25T14:01:06.695Z,1.77
2022-10-25T14:03:25.028Z,1.48
2022-10-25T14:05:43.120Z,1.50
2022-10-25T14:08:00.163Z,1.77
2022-10-25T14:10:17.189Z,1.52
2022-10-25T14:12:35.365Z,1.70
2022-10-25T14:14:52.382Z,1.52
2022-10-25T14:17:10.640Z,1.10
2022-10-25T14:19:27.898Z,1.17
2022-10-25T14:21:46.946Z,1.10
2022-10-25T14:24:04.376Z,1.25
2022-10-25T14:26:21.397Z,1.60
2022-10-25T14:28:38.616Z,1.10
2022-10-25T14:30:56.259Z,1.10
2022-10-25T14:33:16.589Z,0.90
2022-10-25T14:35:33.581Z,0.73
2022-10-25T14:37:50.938Z,0.80
2022-10-25T14:42:27.507Z,0.70
2022-10-25T14:44:44.668Z,0.60
2022-10-25T14:47:03.128Z,0.90
2022-10-25T14:49:20.155Z,0.82
2022-10-25T14:51:37.392Z,0.80
2022-10-25T14:53:55.580Z,0.75
2022-10-25T14:56:13.893Z,0.88
2022-10-25T14:58:32.108Z,0.68
2022-10-25T15:00:49.264Z,0.70
2022-10-25T15:03:06.686Z,0.80
2022-10-25T15:05:25.132Z,0.75
2022-10-25T15:07:43.155Z,0.50
2022-10-25T15:10:03.336Z,0.88
2022-10-25T15:12:21.111Z,0.70
2022-10-25T15:14:39.014Z,0.90
2022-10-25T15:16:56.268Z,0.85
2022-10-25T15:19:16.822Z,0.80
2022-10-25T15:21:36.637Z,0.80
2022-10-25T15:23:54.589Z,0.80
2022-10-25T15:26:11.675Z,0.90
2022-10-25T15:28:28.955Z,0.98
2022-10-25T15:30:46.019Z,1.00
2022-10-25T15:33:03.342Z,1.20
2022-10-25T15:35:20.698Z,0.90
2022-10-25T15:37:38.011Z,0.82
2022-10-25T15:39:55.400Z,1.20
2022-10-25T15:42:14.529Z,1.20
2022-10-25T15:44:32.815Z,1.17
2022-10-25T15:46:50.498Z,0.90
2022-10-25T15:49:07.816Z,0.88
2022-10-25T15:51:27.460Z,0.77
2022-10-25T15:53:48.880Z,1.00
2022-10-25T15:56:06.101Z,0.90
2022-10-25T15:58:23.316Z,0.90
2022-10-25T16:00:41.803Z,1.10
2022-10-25T16:02:59.150Z,1.35
2022-10-25T16:05:16.199Z,0.93
2022-10-25T16:07:35.428Z,1.02
2022-10-25T16:09:52.707Z,0.90
2022-10-25T16:12:10.032Z,1.20
2022-10-25T16:14:27.077Z,0.90
2022-10-25T16:16:44.006Z,1.30
2022-10-25T16:19:03.653Z,1.13
2022-10-25T16:21:21.255Z,1.13
2022-10-25T16:23:38.485Z,1.73
2022-10-25T16:25:55.445Z,1.17
2022-10-25T16:28:13.836Z,1.30
2022-10-25T16:30:31.803Z,1.20
2022-10-25T16:32:49.326Z,1.23
2022-10-25T16:35:06.778Z,1.17
2022-10-25T16:37:23.715Z,0.80
2022-10-25T16:39:40.779Z,1.00
2022-10-25T16:41:58.080Z,1.02
2022-10-25T16:44:14.979Z,0.90
2022-10-25T16:46:31.908Z,1.23
2022-10-25T16:48:48.903Z,2.00
2022-10-25T16:51:12.996Z,1.25
2022-10-25T16:53:30.212Z,1.00
2022-10-25T16:55:47.919Z,1.25
2022-10-25T16:58:04.886Z,1.20
2022-10-25T17:00:23.100Z,1.13
2022-10-25T17:02:42.142Z,0.98
2022-10-25T17:04:59.324Z,1.90
2022-10-25T17:07:16.580Z,0.90
2022-10-25T17:09:33.597Z,1.15
2022-10-25T17:11:50.612Z,1.00
2022-10-25T17:14:08.023Z,1.25
2022-10-25T17:16:24.998Z,1.30
2022-10-25T17:18:42.268Z,1.25
2022-10-25T17:20:59.275Z,1.15
2022-10-25T17:23:16.324Z,1.35
2022-10-25T17:25:33.346Z,0.90
2022-10-25T17:27:50.875Z,1.20
2022-10-25T17:30:08.427Z,1.20
2022-10-25T17:32:26.052Z,1.27
2022-10-25T17:34:43.116Z,1.15
2022-10-25T17:37:00.454Z,1.08
2022-10-25T17:39:18.153Z,1.00
2022-10-25T17:41:37.533Z,1.38
2022-10-25T17:43:56.796Z,2.13
2022-10-25T17:46:14.050Z,1.55
2022-10-25T17:48:31.059Z,1.45
2022-10-25T17:50:48.089Z,2.22
2022-10-25T17:53:06.040Z,1.80
2022-10-25T17:55:24.022Z,1.52
2022-10-25T17:57:41.258Z,1.83
2022-10-25T17:59:58.520Z,1.58
2022-10-25T18:02:16.619Z,1.80
2022-10-25T18:04:52.959Z,2.60
2022-10-25T18:07:10.880Z,2.80
2022-10-25T18:09:27.901Z,2.47
2022-10-25T18:11:44.946Z,2.38
2022-10-25T18:14:01.958Z,2.65
2022-10-25T18:16:19.016Z,1.88
2022-10-25T18:18:36.015Z,1.40
2022-10-25T18:20:53.521Z,1.65
2022-10-25T18:23:10.751Z,1.50
2022-10-25T18:25:27.751Z,1.88
2022-10-25T18:27:45.930Z,2.03
2022-10-25T18:30:03.415Z,1.83
2022-10-25T18:32:20.645Z,1.80
2022-10-25T18:34:37.581Z,2.10
2022-10-25T18:36:54.625Z,1.60
2022-10-25T18:39:11.611Z,1.70
2022-10-25T18:41:28.619Z,1.80
2022-10-25T18:43:45.770Z,1.90
2022-10-25T18:46:02.789Z,1.42
2022-10-25T18:48:19.703Z,1.40
2022-10-25T18:50:39.178Z,1.55
2022-10-25T18:52:58.703Z,2.20
2022-10-25T18:57:38.563Z,2.40
2022-10-25T18:59:55.600Z,4.35
2022-10-25T19:02:12.538Z,6.63
2022-10-25T19:04:29.547Z,9.18
2022-10-25T19:06:46.820Z,11.43
2022-10-25T19:09:03.802Z,10.27
2022-10-25T19:11:20.849Z,9.38
2022-10-25T19:13:38.119Z,13.00
2022-10-25T19:15:55.084Z,9.18
2022-10-25T19:18:12.092Z,10.77
2022-10-25T19:20:29.267Z,8.88
2022-10-25T19:22:46.178Z,7.82
2022-10-25T19:25:03.107Z,5.35
2022-10-25T19:27:20.344Z,4.10
2022-10-25T19:29:38.594Z,5.05
2022-10-25T19:31:55.651Z,5.45
2022-10-25T19:34:13.611Z,3.30
2022-10-25T19:36:30.907Z,3.05
2022-10-25T19:38:47.830Z,3.08
2022-10-25T19:41:05.078Z,3.30
2022-10-25T19:43:22.343Z,3.40
2022-10-25T19:45:39.364Z,3.28
2022-10-25T19:47:56.276Z,2.80
2022-10-25T19:50:13.594Z,3.08
2022-10-25T19:52:30.851Z,2.95
2022-10-25T19:54:47.864Z,2.40
2022-10-25T19:57:07.043Z,2.00
2022-10-25T19:59:24.268Z,2.10
2022-10-25T20:01:41.409Z,2.30
2022-10-25T20:03:59.446Z,2.55
2022-10-25T20:06:18.763Z,2.72
2022-10-25T20:08:41.356Z,2.50
2022-10-25T20:10:58.364Z,2.40
2022-10-25T20:13:16.576Z,2.67
2022-10-25T20:15:33.781Z,2.03
2022-10-25T20:17:51.225Z,1.90
2022-10-25T20:20:08.277Z,2.28
2022-10-25T20:22:26.882Z,2.60
2022-10-25T20:24:46.252Z,2.22
2022-10-25T20:27:03.338Z,2.80
2022-10-25T20:29:21.403Z,2.50
2022-10-25T20:31:38.911Z,2.88
2022-10-25T20:33:55.885Z,2.50
2022-10-25T20:36:13.933Z,2.47
2022-10-25T20:38:30.930Z,2.15
2022-10-25T20:40:47.970Z,2.75
2022-10-25T20:43:05.213Z,2.67
2022-10-25T20:45:22.602Z,3.33
2022-10-25T20:47:39.624Z,2.83
2022-10-25T20:49:56.876Z,2.92
2022-10-25T20:52:13.716Z,3.00
2022-10-25T20:54:30.986Z,2.40
2022-10-25T20:56:48.356Z,2.70
2022-10-25T20:59:05.402Z,2.63
2022-10-25T21:01:22.783Z,2.50
2022-10-25T21:03:40.251Z,2.58
2022-10-25T21:05:58.636Z,3.22
2022-10-25T21:08:16.904Z,2.50
2022-10-25T21:10:34.177Z,3.10
2022-10-25T21:12:51.206Z,2.90
2022-10-25T21:15:11.808Z,2.92
2022-10-25T21:17:29.296Z,2.85
2022-10-25T21:19:47.276Z,2.83
2022-10-25T21:22:04.511Z,2.78
2022-10-25T21:24:21.507Z,3.03
2022-10-25T21:26:38.824Z,2.50
2022-10-25T21:28:55.816Z,2.42
2022-10-25T21:31:13.702Z,2.92
2022-10-25T21:33:30.902Z,2.55
2022-10-25T21:35:48.138Z,3.22
2022-10-25T21:38:05.057Z,3.22
2022-10-25T21:40:22.071Z,3.08
2022-10-25T21:42:39.983Z,3.25
2022-10-25T21:44:57.237Z,3.38
2022-10-25T21:47:15.495Z,2.80
2022-10-25T21:49:33.414Z,3.25
2022-10-25T21:51:51.420Z,3.00
2022-10-25T21:54:08.498Z,3.28
2022-10-25T21:56:26.450Z,3.60
2022-10-25T21:58:43.801Z,3.40
2022-10-25T22:01:01.719Z,2.97
2022-10-25T22:03:19.137Z,3.35
2022-10-25T22:05:36.824Z,3.30
2022-10-25T22:07:53.946Z,3.75
2022-10-25T22:10:11.071Z,3.42
2022-10-25T22:12:28.139Z,3.28
2022-10-25T22:14:45.539Z,3.47
2022-10-25T22:17:03.845Z,3.17
2022-10-25T22:21:38.568Z,3.30
2022-10-25T22:23:56.907Z,3.50
2022-10-25T22:26:13.937Z,3.42
2022-10-25T22:28:30.980Z,3.53
2022-10-25T22:30:48.065Z,3.50
2022-10-25T22:33:05.465Z,3.70
2022-10-25T22:35:24.616Z,3.60
2022-10-25T22:37:42.969Z,3.05
2022-10-25T22:40:01.770Z,3.42
2022-10-25T22:42:20.839Z,3.47
2022-10-25T22:44:39.263Z,3.45
2022-10-25T22:46:56.334Z,3.05
2022-10-25T22:49:13.354Z,3.50
2022-10-25T22:51:30.370Z,2.90
2022-10-25T22:53:47.677Z,3.50
2022-10-25T22:56:04.893Z,3.38
2022-10-25T22:58:22.263Z,3.65
2022-10-25T23:00:39.316Z,3.38
2022-10-25T23:02:56.392Z,2.97
2022-10-25T23:05:13.393Z,3.33
2022-10-25T23:07:30.497Z,3.40
2022-10-25T23:09:47.471Z,3.33
2022-10-25T23:12:04.377Z,3.28
2022-10-25T23:14:21.402Z,3.70
2022-10-25T23:16:39.693Z,3.13
2022-10-25T23:18:56.911Z,3.50
2022-10-25T23:21:13.984Z,3.55
2022-10-25T23:23:31.263Z,3.30
2022-10-25T23:25:48.206Z,3.58
2022-10-25T23:28:05.280Z,3.33
2022-10-25T23:30:22.583Z,3.22
2022-10-25T23:32:39.896Z,3.30
2022-10-25T23:34:57.985Z,2.83
2022-10-25T23:37:15.020Z,3.30
2022-10-25T23:39:32.324Z,3.15
2022-10-25T23:41:49.298Z,3.42
2022-10-25T23:44:06.321Z,3.42
2022-10-25T23:46:24.602Z,3.22
2022-10-25T23:48:41.836Z,3.30
2022-10-25T23:53:18.398Z,2.90
2022-10-25T23:55:36.685Z,2.97
2022-10-25T23:57:53.989Z,3.20
